Terminal Aerodrome Forecast
Issued by NWS

Home | Current Version | Previous Version | Text Only | Print | Product List | Glossary On
Versions: 1 2 3 4 5 6 7 8 9 10 11 12 13 14 15 16 17 18 19 20 21 22 23 24 25 26 27 28 29 30 31 32 33
000
FTUS46 KLOX 252059 AAB
TAFLAX
TAF AMD
KLAX 252059Z 2521/2624 27012KT P6SM SCT150 BKN200
     FM260400 29006KT P6SM BKN150
     FM260900 06005KT P6SM VCSH BKN030 OVC050
     FM261300 09008KT P6SM -SHRA SCT010 OVC021
      TEMPO 2613/2615 10011KT 5SM -RA BR BKN010
     FM261700 14005KT P6SM -SHRA SCT015 BKN025
     FM262000 23010KT P6SM VCSH SCT015 BKN025=

USA.gov is the U.S. government's official web portal to all federal, state and local government web resources and services.